Central, Texas
Current Conditions -  °F | °C
As of 9:55 AM on Friday 31 Oct 2014 (Local Time) from KOCH Reporting Station
Clear Clear  
Wind Chill: 63°   Ceiling: Unl
Heat Index: 63°   Visibility: 10mi
Dew Point: 45°   Wind: 12mph
Humidity: 52%   Direction: 10°N
Pressure: 30.21"   Gusts: 18mph
Location:  31.426°N, 94.8655°W
Report Text: KOCH 311455Z AUTO 01010G16KT 10SM CLR 17/07 A3021 RMK AO1 52020
Loading
Personal Weather Stations






























Interactive Weather Map
Tropical Storm Tracking
New forecast layout! Learn more

10-Day Weather Forecast

Advertisements
Track Severe Weather on mobile